sensor_id;sensor_type;location;lat;lon;timestamp;pressure;altitude;pressure_sealevel;temperature;humidity
43681;BME280;29281;50.356;30.894;2022-10-31T00:00:28;99786.84;;;10.74;87.00
43681;BME280;29281;50.356;30.894;2022-10-31T00:01:34;99786.28;;;10.82;86.71
43681;BME280;29281;50.356;30.894;2022-10-31T00:02:37;99796.13;;;10.69;87.24
43681;BME280;29281;50.356;30.894;2022-10-31T00:03:41;99787.66;;;10.64;87.68
43681;BME280;29281;50.356;30.894;2022-10-31T00:04:45;99788.02;;;10.70;87.55
43681;BME280;29281;50.356;30.894;2022-10-31T00:05:49;99791.30;;;10.74;87.34
43681;BME280;29281;50.356;30.894;2022-10-31T00:06:53;99792.44;;;10.82;86.99
43681;BME280;29281;50.356;30.894;2022-10-31T00:07:57;99790.45;;;10.73;87.28
43681;BME280;29281;50.356;30.894;2022-10-31T00:09:02;99778.02;;;10.74;87.28
43681;BME280;29281;50.356;30.894;2022-10-31T00:10:07;99784.41;;;10.71;87.38
43681;BME280;29281;50.356;30.894;2022-10-31T00:11:12;99781.30;;;10.77;87.13
43681;BME280;29281;50.356;30.894;2022-10-31T00:12:15;99782.97;;;10.67;87.26
43681;BME280;29281;50.356;30.894;2022-10-31T00:13:18;99788.72;;;10.61;87.79
43681;BME280;29281;50.356;30.894;2022-10-31T00:14:23;99780.64;;;10.63;87.76
43681;BME280;29281;50.356;30.894;2022-10-31T00:15:29;99792.11;;;10.63;87.48
43681;BME280;29281;50.356;30.894;2022-10-31T00:16:34;99779.06;;;10.60;87.85
43681;BME280;29281;50.356;30.894;2022-10-31T00:17:38;99786.36;;;10.69;87.41
43681;BME280;29281;50.356;30.894;2022-10-31T00:18:41;99774.89;;;10.69;87.49
43681;BME280;29281;50.356;30.894;2022-10-31T00:19:43;99782.78;;;10.57;87.66
43681;BME280;29281;50.356;30.894;2022-10-31T00:20:47;99785.44;;;10.57;87.68
43681;BME280;29281;50.356;30.894;2022-10-31T00:21:52;99787.25;;;10.57;87.78
43681;BME280;29281;50.356;30.894;2022-10-31T00:22:58;99784.26;;;10.62;87.79
43681;BME280;29281;50.356;30.894;2022-10-31T00:24:02;99782.45;;;10.62;87.49
43681;BME280;29281;50.356;30.894;2022-10-31T00:25:05;99784.88;;;10.65;87.47
43681;BME280;29281;50.356;30.894;2022-10-31T00:26:09;99792.96;;;10.64;87.59
43681;BME280;29281;50.356;30.894;2022-10-31T00:27:12;99780.64;;;10.63;87.55
43681;BME280;29281;50.356;30.894;2022-10-31T00:28:16;99783.63;;;10.58;87.72
43681;BME280;29281;50.356;30.894;2022-10-31T00:29:19;99784.70;;;10.55;88.10
43681;BME280;29281;50.356;30.894;2022-10-31T00:30:21;99790.02;;;10.55;88.08
43681;BME280;29281;50.356;30.894;2022-10-31T00:31:25;99788.83;;;10.60;88.06
43681;BME280;29281;50.356;30.894;2022-10-31T00:32:28;99793.99;;;10.50;88.50
43681;BME280;29281;50.356;30.894;2022-10-31T00:33:33;99795.02;;;10.36;89.28
43681;BME280;29281;50.356;30.894;2022-10-31T00:34:39;99792.41;;;10.47;88.83
43681;BME280;29281;50.356;30.894;2022-10-31T00:35:43;99790.92;;;10.43;88.79
43681;BME280;29281;50.356;30.894;2022-10-31T00:36:48;99788.68;;;10.50;88.76
43681;BME280;29281;50.356;30.894;2022-10-31T00:37:53;99780.83;;;10.48;88.77
43681;BME280;29281;50.356;30.894;2022-10-31T00:38:57;99784.11;;;10.52;88.71
43681;BME280;29281;50.356;30.894;2022-10-31T00:40:00;99783.19;;;10.40;89.10
43681;BME280;29281;50.356;30.894;2022-10-31T00:41:06;99778.50;;;10.44;89.11
43681;BME280;29281;50.356;30.894;2022-10-31T00:42:09;99783.38;;;10.50;88.84
43681;BME280;29281;50.356;30.894;2022-10-31T00:43:13;99780.20;;;10.45;89.10
43681;BME280;29281;50.356;30.894;2022-10-31T00:44:16;99789.34;;;10.41;89.26
43681;BME280;29281;50.356;30.894;2022-10-31T00:45:21;99787.42;;;10.43;89.44
43681;BME280;29281;50.356;30.894;2022-10-31T00:46:26;99790.44;;;10.38;89.43
43681;BME280;29281;50.356;30.894;2022-10-31T00:47:30;99790.44;;;10.38;89.54
43681;BME280;29281;50.356;30.894;2022-10-31T00:48:34;99783.48;;;10.48;89.29
43681;BME280;29281;50.356;30.894;2022-10-31T00:49:38;99781.67;;;10.49;89.15
43681;BME280;29281;50.356;30.894;2022-10-31T00:50:42;99780.05;;;10.35;89.79
43681;BME280;29281;50.356;30.894;2022-10-31T00:51:47;99782.11;;;10.43;89.62
43681;BME280;29281;50.356;30.894;2022-10-31T00:52:52;99784.50;;;10.35;89.71
43681;BME280;29281;50.356;30.894;2022-10-31T00:53:55;99777.39;;;10.35;89.87
43681;BME280;29281;50.356;30.894;2022-10-31T00:55:00;99773.04;;;10.34;90.11
43681;BME280;29281;50.356;30.894;2022-10-31T00:56:04;99771.56;;;10.30;90.11
43681;BME280;29281;50.356;30.894;2022-10-31T00:57:09;99777.28;;;10.37;89.95
43681;BME280;29281;50.356;30.894;2022-10-31T00:58:15;99767.10;;;10.31;90.38
43681;BME280;29281;50.356;30.894;2022-10-31T00:59:19;99762.42;;;10.34;90.23
43681;BME280;29281;50.356;30.894;2022-10-31T01:00:23;99768.06;;;10.30;90.53
43681;BME280;29281;50.356;30.894;2022-10-31T01:01:26;99769.75;;;10.31;90.47
43681;BME280;29281;50.356;30.894;2022-10-31T01:02:30;99765.24;;;10.20;90.98
43681;BME280;29281;50.356;30.894;2022-10-31T01:03:35;99765.53;;;10.15;91.21
43681;BME280;29281;50.356;30.894;2022-10-31T01:04:42;99760.34;;;10.14;91.69
43681;BME280;29281;50.356;30.894;2022-10-31T01:05:54;99762.13;;;10.26;90.94
43681;BME280;29281;50.356;30.894;2022-10-31T01:06:52;99760.20;;;10.28;90.79
43681;BME280;29281;50.356;30.894;2022-10-31T01:07:58;99770.44;;;10.21;91.06
43681;BME280;29281;50.356;30.894;2022-10-31T01:09:03;99764.17;;;10.23;91.28
43681;BME280;29281;50.356;30.894;2022-10-31T01:10:09;99758.73;;;10.24;91.38
43681;BME280;29281;50.356;30.894;2022-10-31T01:11:19;99767.31;;;10.28;91.13
43681;BME280;29281;50.356;30.894;2022-10-31T01:12:24;99759.25;;;10.29;90.80
43681;BME280;29281;50.356;30.894;2022-10-31T01:13:27;99762.13;;;10.26;90.83
43681;BME280;29281;50.356;30.894;2022-10-31T01:14:30;99767.40;;;10.39;90.23
43681;BME280;29281;50.356;30.894;2022-10-31T01:15:35;99769.97;;;10.28;90.70
43681;BME280;29281;50.356;30.894;2022-10-31T01:16:42;99762.86;;;10.28;91.07
43681;BME280;29281;50.356;30.894;2022-10-31T01:17:47;99765.73;;;10.25;91.11
43681;BME280;29281;50.356;30.894;2022-10-31T01:18:51;99767.42;;;10.26;91.06
43681;BME280;29281;50.356;30.894;2022-10-31T01:19:56;99768.01;;;10.18;91.45
43681;BME280;29281;50.356;30.894;2022-10-31T01:21:06;99766.92;;;10.08;91.78
43681;BME280;29281;50.356;30.894;2022-10-31T01:22:09;99768.93;;;10.17;91.71
43681;BME280;29281;50.356;30.894;2022-10-31T01:23:13;99775.52;;;10.12;91.79
43681;BME280;29281;50.356;30.894;2022-10-31T01:24:16;99769.94;;;10.04;92.41
43681;BME280;29281;50.356;30.894;2022-10-31T01:25:20;99768.02;;;10.06;92.46
43681;BME280;29281;50.356;30.894;2022-10-31T01:26:26;99767.79;;;10.21;91.65
43681;BME280;29281;50.356;30.894;2022-10-31T01:27:31;99769.47;;;10.10;91.94
43681;BME280;29281;50.356;30.894;2022-10-31T01:28:38;99772.37;;;10.07;92.28
43681;BME280;29281;50.356;30.894;2022-10-31T01:29:43;99772.59;;;10.04;92.51
43681;BME280;29281;50.356;30.894;2022-10-31T01:30:46;99770.32;;;10.10;92.06
43681;BME280;29281;50.356;30.894;2022-10-31T01:31:50;99765.97;;;10.09;92.37
43681;BME280;29281;50.356;30.894;2022-10-31T01:32:53;99768.19;;;10.15;91.80
43681;BME280;29281;50.356;30.894;2022-10-31T01:33:56;99767.45;;;10.13;92.11
43681;BME280;29281;50.356;30.894;2022-10-31T01:35:01;99778.70;;;10.17;91.83
43681;BME280;29281;50.356;30.894;2022-10-31T01:36:11;99773.72;;;10.12;91.99
43681;BME280;29281;50.356;30.894;2022-10-31T01:37:15;99776.23;;;10.27;91.25
43681;BME280;29281;50.356;30.894;2022-10-31T01:38:22;99771.69;;;10.16;91.64
43681;BME280;29281;50.356;30.894;2022-10-31T01:39:26;99773.39;;;10.17;91.87
43681;BME280;29281;50.356;30.894;2022-10-31T01:40:29;99771.63;;;10.05;92.17
43681;BME280;29281;50.356;30.894;2022-10-31T01:41:34;99781.61;;;10.01;92.58
43681;BME280;29281;50.356;30.894;2022-10-31T01:42:39;99779.06;;;10.00;92.75
43681;BME280;29281;50.356;30.894;2022-10-31T01:43:47;99779.39;;;9.95;92.96
43681;BME280;29281;50.356;30.894;2022-10-31T01:44:52;99774.50;;;10.02;92.46
43681;BME280;29281;50.356;30.894;2022-10-31T01:45:58;99778.17;;;10.12;91.93
43681;BME280;29281;50.356;30.894;2022-10-31T01:47:07;99780.77;;;10.01;92.48
43681;BME280;29281;50.356;30.894;2022-10-31T01:48:11;99790.95;;;9.94;93.01
43681;BME280;29281;50.356;30.894;2022-10-31T01:49:27;99788.77;;;9.88;93.31
43681;BME280;29281;50.356;30.894;2022-10-31T01:50:30;99792.90;;;9.92;93.17
43681;BME280;29281;50.356;30.894;2022-10-31T01:51:33;99779.39;;;9.95;93.08
43681;BME280;29281;50.356;30.894;2022-10-31T01:52:45;99781.72;;;10.00;92.62
43681;BME280;29281;50.356;30.894;2022-10-31T01:53:45;99790.11;;;9.94;92.76
43681;BME280;29281;50.356;30.894;2022-10-31T01:54:50;99797.88;;;9.84;93.28
43681;BME280;29281;50.356;30.894;2022-10-31T01:55:53;99777.83;;;9.93;92.75
43681;BME280;29281;50.356;30.894;2022-10-31T01:56:58;99786.74;;;9.92;92.96
43681;BME280;29281;50.356;30.894;2022-10-31T01:58:04;99777.94;;;9.91;92.77
43681;BME280;29281;50.356;30.894;2022-10-31T01:59:09;99777.37;;;9.99;92.52
43681;BME280;29281;50.356;30.894;2022-10-31T02:00:15;99774.83;;;9.97;92.66
43681;BME280;29281;50.356;30.894;2022-10-31T02:01:19;99779.28;;;9.97;92.66
43681;BME280;29281;50.356;30.894;2022-10-31T02:02:23;99783.84;;;9.95;92.45
43681;BME280;29281;50.356;30.894;2022-10-31T02:03:29;99776.98;;;9.92;92.30
43681;BME280;29281;50.356;30.894;2022-10-31T02:04:33;99782.28;;;9.92;92.49
43681;BME280;29281;50.356;30.894;2022-10-31T02:05:38;99789.05;;;9.96;92.20
43681;BME280;29281;50.356;30.894;2022-10-31T02:06:45;99783.56;;;9.86;92.58
43681;BME280;29281;50.356;30.894;2022-10-31T02:08:02;99784.48;;;9.98;91.88
43681;BME280;29281;50.356;30.894;2022-10-31T02:09:05;99775.56;;;9.99;91.97
43681;BME280;29281;50.356;30.894;2022-10-31T02:10:09;99782.39;;;9.91;92.23
43681;BME280;29281;50.356;30.894;2022-10-31T02:11:13;99776.45;;;9.87;92.36
43681;BME280;29281;50.356;30.894;2022-10-31T02:12:16;99779.92;;;10.00;91.74
43681;BME280;29281;50.356;30.894;2022-10-31T02:13:20;99781.44;;;9.92;91.85
43681;BME280;29281;50.356;30.894;2022-10-31T02:14:25;99785.11;;;10.02;91.57
43681;BME280;29281;50.356;30.894;2022-10-31T02:15:28;99789.78;;;9.98;91.53
43681;BME280;29281;50.356;30.894;2022-10-31T02:16:32;99784.16;;;10.03;91.30
43681;BME280;29281;50.356;30.894;2022-10-31T02:17:37;99793.61;;;9.94;91.56
43681;BME280;29281;50.356;30.894;2022-10-31T02:18:43;99793.50;;;9.96;91.69
43681;BME280;29281;50.356;30.894;2022-10-31T02:20:12;99806.16;;;9.92;91.71
43681;BME280;29281;50.356;30.894;2022-10-31T02:26:07;99816.10;;;10.01;91.38
43681;BME280;29281;50.356;30.894;2022-10-31T02:28:33;99805.66;;;10.11;91.04
43681;BME280;29281;50.356;30.894;2022-10-31T02:30:53;99804.53;;;10.02;91.60
43681;BME280;29281;50.356;30.894;2022-10-31T02:32:09;99815.67;;;10.07;91.16
43681;BME280;29281;50.356;30.894;2022-10-31T02:33:15;99821.58;;;10.11;90.92
43681;BME280;29281;50.356;30.894;2022-10-31T02:39:24;99829.10;;;10.30;90.24
43681;BME280;29281;50.356;30.894;2022-10-31T02:40:39;99825.37;;;10.32;90.03
43681;BME280;29281;50.356;30.894;2022-10-31T02:41:49;99834.41;;;10.30;89.93
43681;BME280;29281;50.356;30.894;2022-10-31T02:43:00;99829.31;;;10.27;90.06
43681;BME280;29281;50.356;30.894;2022-10-31T02:45:21;99833.29;;;10.45;89.44
43681;BME280;29281;50.356;30.894;2022-10-31T02:46:26;99842.16;;;10.56;88.68
43681;BME280;29281;50.356;30.894;2022-10-31T02:47:29;99840.93;;;10.49;88.89
43681;BME280;29281;50.356;30.894;2022-10-31T02:48:34;99847.03;;;10.39;89.55
43681;BME280;29281;50.356;30.894;2022-10-31T02:49:45;99847.84;;;10.39;89.65
43681;BME280;29281;50.356;30.894;2022-10-31T02:50:52;99849.44;;;10.42;89.48
43681;BME280;29281;50.356;30.894;2022-10-31T02:51:55;99851.24;;;10.41;89.66
43681;BME280;29281;50.356;30.894;2022-10-31T02:52:57;99854.70;;;10.54;89.02
43681;BME280;29281;50.356;30.894;2022-10-31T02:54:01;99846.73;;;10.54;88.85
43681;BME280;29281;50.356;30.894;2022-10-31T02:55:12;99845.33;;;10.62;88.56
43681;BME280;29281;50.356;30.894;2022-10-31T02:56:18;99849.63;;;10.75;88.05
43681;BME280;29281;50.356;30.894;2022-10-31T02:57:30;99843.64;;;10.61;88.24
43681;BME280;29281;50.356;30.894;2022-10-31T02:58:36;99844.66;;;10.47;89.10
43681;BME280;29281;50.356;30.894;2022-10-31T02:59:44;99853.36;;;10.49;88.96
43681;BME280;29281;50.356;30.894;2022-10-31T03:02:01;99855.64;;;10.30;89.89
43681;BME280;29281;50.356;30.894;2022-10-31T03:03:08;99851.08;;;10.32;89.80
43681;BME280;29281;50.356;30.894;2022-10-31T03:04:16;99853.41;;;10.36;89.62
43681;BME280;29281;50.356;30.894;2022-10-31T03:06:34;99868.70;;;10.33;89.54
43681;BME280;29281;50.356;30.894;2022-10-31T03:08:50;99850.86;;;10.35;88.84
43681;BME280;29281;50.356;30.894;2022-10-31T03:11:08;99849.96;;;10.47;87.91
43681;BME280;29281;50.356;30.894;2022-10-31T03:12:12;99858.94;;;10.57;87.77
43681;BME280;29281;50.356;30.894;2022-10-31T03:13:21;99862.44;;;10.57;87.36
43681;BME280;29281;50.356;30.894;2022-10-31T03:14:25;99864.50;;;10.54;87.47
43681;BME280;29281;50.356;30.894;2022-10-31T03:15:30;99867.09;;;10.67;86.88
43681;BME280;29281;50.356;30.894;2022-10-31T03:17:12;99861.67;;;10.68;86.55
43681;BME280;29281;50.356;30.894;2022-10-31T03:17:50;99852.67;;;10.58;86.80
43681;BME280;29281;50.356;30.894;2022-10-31T03:19:00;99859.78;;;10.57;86.99
43681;BME280;29281;50.356;30.894;2022-10-31T03:20:04;99859.30;;;10.52;86.40
43681;BME280;29281;50.356;30.894;2022-10-31T03:21:12;99862.17;;;10.49;87.23
43681;BME280;29281;50.356;30.894;2022-10-31T03:22:17;99866.25;;;10.66;86.59
43681;BME280;29281;50.356;30.894;2022-10-31T03:23:21;99873.59;;;10.63;86.25
43681;BME280;29281;50.356;30.894;2022-10-31T03:24:27;99871.61;;;10.53;86.21
43681;BME280;29281;50.356;30.894;2022-10-31T03:25:31;99880.28;;;10.55;86.07
43681;BME280;29281;50.356;30.894;2022-10-31T03:26:40;99882.62;;;10.60;86.02
43681;BME280;29281;50.356;30.894;2022-10-31T03:27:44;99880.18;;;10.57;85.93
43681;BME280;29281;50.356;30.894;2022-10-31T03:29:57;99894.50;;;10.67;85.03
43681;BME280;29281;50.356;30.894;2022-10-31T03:31:04;99886.80;;;10.75;84.08
43681;BME280;29281;50.356;30.894;2022-10-31T03:33:17;99882.51;;;10.62;84.53
43681;BME280;29281;50.356;30.894;2022-10-31T03:34:21;99896.85;;;10.59;83.83
43681;BME280;29281;50.356;30.894;2022-10-31T03:35:25;99891.44;;;10.61;83.39
43681;BME280;29281;50.356;30.894;2022-10-31T03:36:30;99897.70;;;10.60;82.82
43681;BME280;29281;50.356;30.894;2022-10-31T03:37:34;99907.09;;;10.52;82.75
43681;BME280;29281;50.356;30.894;2022-10-31T03:38:43;99911.94;;;10.58;82.44
43681;BME280;29281;50.356;30.894;2022-10-31T03:39:45;99905.56;;;10.61;82.23
43681;BME280;29281;50.356;30.894;2022-10-31T03:40:50;99916.75;;;10.53;81.94
43681;BME280;29281;50.356;30.894;2022-10-31T03:42:05;99917.85;;;10.38;81.28
43681;BME280;29281;50.356;30.894;2022-10-31T03:43:01;99920.51;;;10.38;80.82
43681;BME280;29281;50.356;30.894;2022-10-31T03:44:17;99933.75;;;10.51;79.98
43681;BME280;29281;50.356;30.894;2022-10-31T03:45:14;99931.09;;;10.51;79.96
43681;BME280;29281;50.356;30.894;2022-10-31T03:46:17;99938.27;;;10.62;79.16
43681;BME280;29281;50.356;30.894;2022-10-31T03:47:21;99940.22;;;10.47;77.95
43681;BME280;29281;50.356;30.894;2022-10-31T03:48:25;99959.56;;;10.23;73.45
43681;BME280;29281;50.356;30.894;2022-10-31T03:49:29;99968.91;;;10.04;66.68
43681;BME280;29281;50.356;30.894;2022-10-31T03:50:45;99976.53;;;9.96;65.24
43681;BME280;29281;50.356;30.894;2022-10-31T03:53:57;99983.32;;;9.74;63.33
43681;BME280;29281;50.356;30.894;2022-10-31T03:55:13;99986.08;;;9.73;63.22
43681;BME280;29281;50.356;30.894;2022-10-31T03:56:21;99983.83;;;9.67;63.04
43681;BME280;29281;50.356;30.894;2022-10-31T03:57:27;99983.83;;;9.67;63.20
43681;BME280;29281;50.356;30.894;2022-10-31T03:58:34;99989.83;;;9.43;63.02
43681;BME280;29281;50.356;30.894;2022-10-31T03:59:41;99987.84;;;9.47;62.94
43681;BME280;29281;50.356;30.894;2022-10-31T04:00:45;99986.43;;;9.41;63.15
43681;BME280;29281;50.356;30.894;2022-10-31T04:01:53;99990.98;;;9.39;63.35
43681;BME280;29281;50.356;30.894;2022-10-31T04:02:59;99978.78;;;9.37;63.40
43681;BME280;29281;50.356;30.894;2022-10-31T04:04:04;99991.73;;;9.41;63.38
43681;BME280;29281;50.356;30.894;2022-10-31T04:05:09;99990.12;;;9.39;63.64
43681;BME280;29281;50.356;30.894;2022-10-31T04:06:12;99988.55;;;9.49;63.65
43681;BME280;29281;50.356;30.894;2022-10-31T04:07:18;99991.11;;;9.50;63.57
43681;BME280;29281;50.356;30.894;2022-10-31T04:08:26;99987.38;;;9.40;63.90
43681;BME280;29281;50.356;30.894;2022-10-31T04:09:31;99990.33;;;9.36;64.09
43681;BME280;29281;50.356;30.894;2022-10-31T04:10:34;99991.89;;;9.26;64.28
43681;BME280;29281;50.356;30.894;2022-10-31T04:11:47;99995.78;;;9.20;64.50
43681;BME280;29281;50.356;30.894;2022-10-31T04:13:03;99993.69;;;9.25;64.54
43681;BME280;29281;50.356;30.894;2022-10-31T04:14:11;99988.30;;;9.27;64.56
43681;BME280;29281;50.356;30.894;2022-10-31T04:15:15;99997.80;;;9.16;64.96
43681;BME280;29281;50.356;30.894;2022-10-31T04:16:18;99997.80;;;9.16;65.24
43681;BME280;29281;50.356;30.894;2022-10-31T04:17:23;100011.83;;;9.04;65.51
43681;BME280;29281;50.356;30.894;2022-10-31T04:18:26;99997.34;;;9.10;65.53
43681;BME280;29281;50.356;30.894;2022-10-31T04:19:30;100012.02;;;9.01;65.88
43681;BME280;29281;50.356;30.894;2022-10-31T04:20:36;100012.14;;;9.00;65.87
43681;BME280;29281;50.356;30.894;2022-10-31T04:21:42;100009.69;;;8.97;66.12
43681;BME280;29281;50.356;30.894;2022-10-31T04:22:49;100014.13;;;8.96;66.30
43681;BME280;29281;50.356;30.894;2022-10-31T04:23:51;100011.30;;;8.99;66.29
43681;BME280;29281;50.356;30.894;2022-10-31T04:24:58;100012.43;;;8.95;66.42
43681;BME280;29281;50.356;30.894;2022-10-31T04:26:01;100007.61;;;8.88;66.78
43681;BME280;29281;50.356;30.894;2022-10-31T04:27:05;100015.30;;;8.78;67.21
43681;BME280;29281;50.356;30.894;2022-10-31T04:28:08;100010.50;;;8.70;67.48
43681;BME280;29281;50.356;30.894;2022-10-31T04:29:11;100008.96;;;8.80;67.33
43681;BME280;29281;50.356;30.894;2022-10-31T04:30:20;100007.92;;;8.83;67.18
43681;BME280;29281;50.356;30.894;2022-10-31T04:31:21;100012.08;;;8.73;67.80
43681;BME280;29281;50.356;30.894;2022-10-31T04:32:23;100010.28;;;8.73;67.94
43681;BME280;29281;50.356;30.894;2022-10-31T04:33:27;100018.06;;;8.62;67.97
43681;BME280;29281;50.356;30.894;2022-10-31T04:34:31;100010.39;;;8.58;68.31
43681;BME280;29281;50.356;30.894;2022-10-31T04:35:35;100016.17;;;8.64;68.34
43681;BME280;29281;50.356;30.894;2022-10-31T04:36:40;100012.39;;;8.68;68.23
43681;BME280;29281;50.356;30.894;2022-10-31T04:37:43;100010.28;;;8.73;67.85
43681;BME280;29281;50.356;30.894;2022-10-31T04:38:48;100012.09;;;8.59;68.17
43681;BME280;29281;50.356;30.894;2022-10-31T04:39:53;100012.00;;;8.60;68.00
43681;BME280;29281;50.356;30.894;2022-10-31T04:41:10;100019.27;;;8.71;68.29
43681;BME280;29281;50.356;30.894;2022-10-31T04:42:20;100027.70;;;8.63;67.37
43681;BME280;29281;50.356;30.894;2022-10-31T04:43:24;100031.30;;;8.62;67.47
43681;BME280;29281;50.356;30.894;2022-10-31T04:44:27;100020.61;;;8.64;67.53
43681;BME280;29281;50.356;30.894;2022-10-31T04:45:31;100036.23;;;8.54;67.78
43681;BME280;29281;50.356;30.894;2022-10-31T04:46:36;100024.88;;;8.66;67.42
43681;BME280;29281;50.356;30.894;2022-10-31T04:47:40;100035.38;;;8.54;67.90
43681;BME280;29281;50.356;30.894;2022-10-31T04:48:44;100028.66;;;8.48;67.66
43681;BME280;29281;50.356;30.894;2022-10-31T04:49:49;100033.86;;;8.50;67.55
43681;BME280;29281;50.356;30.894;2022-10-31T04:50:59;100033.45;;;8.56;67.46
43681;BME280;29281;50.356;30.894;2022-10-31T04:52:03;100037.81;;;8.42;67.59
43681;BME280;29281;50.356;30.894;2022-10-31T04:53:08;100048.40;;;8.42;67.58
43681;BME280;29281;50.356;30.894;2022-10-31T04:54:14;100039.91;;;8.37;67.59
43681;BME280;29281;50.356;30.894;2022-10-31T04:55:38;100043.32;;;8.39;67.56
43681;BME280;29281;50.356;30.894;2022-10-31T04:56:55;100047.37;;;8.45;67.02
43681;BME280;29281;50.356;30.894;2022-10-31T04:57:59;100047.94;;;8.36;67.23
43681;BME280;29281;50.356;30.894;2022-10-31T04:59:03;100062.20;;;8.33;67.08
43681;BME280;29281;50.356;30.894;2022-10-31T05:00:13;100059.66;;;8.60;66.59
43681;BME280;29281;50.356;30.894;2022-10-31T05:01:18;100059.84;;;8.57;66.28
43681;BME280;29281;50.356;30.894;2022-10-31T05:02:23;100066.20;;;8.55;66.28
43681;BME280;29281;50.356;30.894;2022-10-31T05:03:31;100069.20;;;8.34;66.50
43681;BME280;29281;50.356;30.894;2022-10-31T05:04:33;100075.35;;;8.49;66.49
43681;BME280;29281;50.356;30.894;2022-10-31T05:05:37;100073.73;;;8.32;66.43
43681;BME280;29281;50.356;30.894;2022-10-31T05:06:40;100084.41;;;8.45;66.29
43681;BME280;29281;50.356;30.894;2022-10-31T05:07:44;100078.09;;;8.48;65.53
43681;BME280;29281;50.356;30.894;2022-10-31T05:08:48;100085.27;;;8.45;65.52
43681;BME280;29281;50.356;30.894;2022-10-31T05:09:51;100089.25;;;8.38;65.80
43681;BME280;29281;50.356;30.894;2022-10-31T05:10:55;100084.59;;;8.42;65.60
43681;BME280;29281;50.356;30.894;2022-10-31T05:12:03;100077.72;;;8.39;65.92
43681;BME280;29281;50.356;30.894;2022-10-31T05:13:16;100084.37;;;8.31;65.87
43681;BME280;29281;50.356;30.894;2022-10-31T05:14:39;100085.27;;;8.45;65.97
43681;BME280;29281;50.356;30.894;2022-10-31T05:15:51;100091.41;;;8.60;65.13
43681;BME280;29281;50.356;30.894;2022-10-31T05:17:13;100095.94;;;8.44;65.23
43681;BME280;29281;50.356;30.894;2022-10-31T05:18:35;100101.33;;;8.42;65.60
43681;BME280;29281;50.356;30.894;2022-10-31T05:19:47;100100.09;;;8.34;65.51
43681;BME280;29281;50.356;30.894;2022-10-31T05:21:12;100092.70;;;8.25;65.80
43681;BME280;29281;50.356;30.894;2022-10-31T05:22:21;100102.42;;;8.24;65.66
43681;BME280;29281;50.356;30.894;2022-10-31T05:23:25;100105.41;;;8.48;65.01
43681;BME280;29281;50.356;30.894;2022-10-31T05:24:29;100115.63;;;8.97;63.90
43681;BME280;29281;50.356;30.894;2022-10-31T05:25:33;100113.88;;;9.24;62.78
43681;BME280;29281;50.356;30.894;2022-10-31T05:26:38;100112.84;;;9.27;61.99
43681;BME280;29281;50.356;30.894;2022-10-31T05:27:45;100121.66;;;9.13;61.71
43681;BME280;29281;50.356;30.894;2022-10-31T05:28:51;100116.74;;;9.07;62.05
43681;BME280;29281;50.356;30.894;2022-10-31T05:29:55;100120.05;;;9.10;62.39
43681;BME280;29281;50.356;30.894;2022-10-31T05:30:59;100127.16;;;8.96;62.53
43681;BME280;29281;50.356;30.894;2022-10-31T05:32:03;100132.37;;;8.97;62.36
43681;BME280;29281;50.356;30.894;2022-10-31T05:33:26;100132.55;;;8.94;62.73
43681;BME280;29281;50.356;30.894;2022-10-31T05:34:43;100135.30;;;8.78;63.62
43681;BME280;29281;50.356;30.894;2022-10-31T05:35:48;100136.89;;;8.53;64.39
43681;BME280;29281;50.356;30.894;2022-10-31T05:37:04;100132.16;;;8.58;64.61
43681;BME280;29281;50.356;30.894;2022-10-31T05:38:07;100142.20;;;8.81;64.24
43681;BME280;29281;50.356;30.894;2022-10-31T05:39:14;100141.35;;;8.80;64.02
43681;BME280;29281;50.356;30.894;2022-10-31T05:40:20;100146.47;;;8.98;63.89
43681;BME280;29281;50.356;30.894;2022-10-31T05:41:24;100150.82;;;8.85;63.89
43681;BME280;29281;50.356;30.894;2022-10-31T05:42:28;100149.66;;;8.89;63.84
43681;BME280;29281;50.356;30.894;2022-10-31T05:43:32;100148.63;;;8.91;64.20
43681;BME280;29281;50.356;30.894;2022-10-31T05:44:37;100157.61;;;8.89;64.16
43681;BME280;29281;50.356;30.894;2022-10-31T05:46:01;100162.91;;;8.89;64.29
43681;BME280;29281;50.356;30.894;2022-10-31T05:47:20;100158.66;;;9.14;63.47
43681;BME280;29281;50.356;30.894;2022-10-31T05:48:32;100164.41;;;9.21;63.29
43681;BME280;29281;50.356;30.894;2022-10-31T05:49:49;100162.26;;;9.13;63.33
43681;BME280;29281;50.356;30.894;2022-10-31T05:51:12;100172.67;;;9.16;63.38
43681;BME280;29281;50.356;30.894;2022-10-31T05:52:14;100169.05;;;9.03;63.11
43681;BME280;29281;50.356;30.894;2022-10-31T05:53:20;100174.25;;;9.19;63.32
43681;BME280;29281;50.356;30.894;2022-10-31T05:54:25;100174.45;;;9.30;63.00
43681;BME280;29281;50.356;30.894;2022-10-31T05:55:28;100181.34;;;9.47;62.78
43681;BME280;29281;50.356;30.894;2022-10-31T05:56:34;100177.61;;;9.49;62.33
43681;BME280;29281;50.356;30.894;2022-10-31T05:57:37;100182.55;;;9.82;61.43
43681;BME280;29281;50.356;30.894;2022-10-31T05:58:42;100193.20;;;9.95;60.82
43681;BME280;29281;50.356;30.894;2022-10-31T05:59:45;100190.10;;;10.55;59.40
43681;BME280;29281;50.356;30.894;2022-10-31T06:00:51;100200.02;;;10.66;58.85
43681;BME280;29281;50.356;30.894;2022-10-31T06:01:55;100196.37;;;9.87;60.07
43681;BME280;29281;50.356;30.894;2022-10-31T06:03:04;100204.05;;;9.78;60.83
43681;BME280;29281;50.356;30.894;2022-10-31T06:04:09;100203.75;;;9.56;61.82
43681;BME280;29281;50.356;30.894;2022-10-31T06:05:13;100207.18;;;9.43;61.77
43681;BME280;29281;50.356;30.894;2022-10-31T06:06:16;100218.25;;;9.22;61.86
43681;BME280;29281;50.356;30.894;2022-10-31T06:07:20;100217.31;;;9.08;62.35
43681;BME280;29281;50.356;30.894;2022-10-31T06:08:24;100204.73;;;8.98;62.93
43681;BME280;29281;50.356;30.894;2022-10-31T06:09:29;100217.31;;;9.08;62.79